createdAt,value
2022-10-26T00:01:51.862Z,15.30
2022-10-26T00:04:22.673Z,18.98
2022-10-26T00:06:53.131Z,24.58
2022-10-26T00:09:23.867Z,18.75
2022-10-26T00:11:55.275Z,20.75
2022-10-26T00:14:26.481Z,17.75
2022-10-26T00:16:59.701Z,21.38
2022-10-26T00:19:30.755Z,19.00
2022-10-26T00:22:01.269Z,17.42
2022-10-26T00:24:31.699Z,15.57
2022-10-26T00:27:02.187Z,17.65
2022-10-26T00:29:32.751Z,16.15
2022-10-26T00:32:06.877Z,18.25
2022-10-26T00:34:37.403Z,14.45
2022-10-26T00:37:07.991Z,16.38
2022-10-26T00:39:38.650Z,17.83
2022-10-26T00:42:09.435Z,16.42
2022-10-26T00:45:00.859Z,18.27
2022-10-26T00:47:45.622Z,20.40
2022-10-26T00:50:21.480Z,19.42
2022-10-26T00:52:53.764Z,20.10
2022-10-26T00:55:30.096Z,18.67
2022-10-26T00:58:01.931Z,16.98
2022-10-26T01:00:32.801Z,14.20
2022-10-26T01:03:10.626Z,19.08
2022-10-26T01:05:44.013Z,17.35
2022-10-26T01:08:15.470Z,21.73
2022-10-26T01:10:46.228Z,16.20
2022-10-26T01:13:18.988Z,17.05
2022-10-26T01:15:59.865Z,16.63
2022-10-26T01:18:43.797Z,17.95
2022-10-26T01:21:42.766Z,22.42
2022-10-26T01:24:34.768Z,20.67
2022-10-26T01:27:23.415Z,14.68
2022-10-26T01:30:25.327Z,19.50
2022-10-26T01:33:23.063Z,18.65
2022-10-26T01:36:06.077Z,16.92
2022-10-26T01:38:54.652Z,17.38
2022-10-26T01:41:29.771Z,12.18
2022-10-26T01:44:06.357Z,17.58
2022-10-26T01:46:42.708Z,13.80
2022-10-26T01:49:19.013Z,20.38
2022-10-26T01:51:52.609Z,17.38
2022-10-26T01:54:23.199Z,14.63
2022-10-26T01:56:57.164Z,13.32
2022-10-26T01:59:41.241Z,19.70
2022-10-26T02:02:47.453Z,21.83
2022-10-26T02:05:34.682Z,14.23
2022-10-26T02:08:23.484Z,11.50
2022-10-26T02:11:04.852Z,14.45
2022-10-26T02:13:42.413Z,13.20
2022-10-26T02:16:23.031Z,14.73
2022-10-26T02:18:59.644Z,12.27
2022-10-26T02:21:39.311Z,16.17
2022-10-26T02:24:14.073Z,11.60
2022-10-26T02:26:49.110Z,13.55
2022-10-26T02:29:23.079Z,16.08
2022-10-26T02:31:54.920Z,15.85
2022-10-26T02:34:30.896Z,11.43
2022-10-26T02:37:05.439Z,12.10
2022-10-26T02:39:38.116Z,13.75
2022-10-26T02:42:11.599Z,12.93
2022-10-26T02:44:47.485Z,12.73
2022-10-26T02:47:18.334Z,11.23
2022-10-26T02:49:49.000Z,18.92
2022-10-26T02:52:31.574Z,13.07
2022-10-26T02:55:06.424Z,14.75
2022-10-26T02:57:40.457Z,12.43
2022-10-26T03:00:13.547Z,15.13
2022-10-26T03:02:48.410Z,16.15
2022-10-26T03:05:23.058Z,15.00
2022-10-26T03:07:56.430Z,12.68
2022-10-26T03:10:27.182Z,16.52
2022-10-26T03:12:57.931Z,12.50
2022-10-26T03:15:28.387Z,15.90
2022-10-26T03:17:58.907Z,13.63
2022-10-26T03:20:29.391Z,12.00
2022-10-26T03:23:02.788Z,15.88
2022-10-26T03:25:33.316Z,13.82
2022-10-26T03:28:05.674Z,13.88
2022-10-26T03:30:36.632Z,13.73
2022-10-26T03:33:07.209Z,9.40
2022-10-26T03:35:37.776Z,8.88
2022-10-26T03:38:15.174Z,11.40
2022-10-26T03:40:48.691Z,18.30
2022-10-26T03:43:19.201Z,12.52
2022-10-26T03:45:49.638Z,14.07
2022-10-26T03:48:20.151Z,14.55
2022-10-26T03:50:50.652Z,13.38
2022-10-26T03:53:23.817Z,14.98
2022-10-26T03:55:54.274Z,14.95
2022-10-26T04:01:15.890Z,13.07
2022-10-26T04:03:46.424Z,14.48
2022-10-26T04:06:17.349Z,16.08
2022-10-26T04:08:51.975Z,11.25
2022-10-26T04:11:22.477Z,11.70
2022-10-26T04:13:52.969Z,11.05
2022-10-26T04:16:23.473Z,12.35
2022-10-26T04:18:54.030Z,13.45
2022-10-26T04:21:25.172Z,14.50
2022-10-26T04:23:58.610Z,15.40
2022-10-26T04:26:29.102Z,18.60
2022-10-26T04:28:59.766Z,17.00
2022-10-26T04:31:30.459Z,14.48
2022-10-26T04:34:01.106Z,15.00
2022-10-26T04:36:31.647Z,20.80
2022-10-26T04:39:05.076Z,14.68
2022-10-26T04:41:35.512Z,15.32
2022-10-26T04:44:06.053Z,16.58
2022-10-26T04:46:36.509Z,18.20
2022-10-26T04:49:07.033Z,15.25
2022-10-26T04:51:37.427Z,14.43
2022-10-26T04:54:10.743Z,14.77
2022-10-26T04:56:41.351Z,15.85
2022-10-26T04:59:11.866Z,15.00
2022-10-26T05:01:42.534Z,14.35
2022-10-26T05:04:13.335Z,14.00
2022-10-26T05:06:43.882Z,10.68
2022-10-26T05:09:17.064Z,14.05
2022-10-26T05:11:47.604Z,13.55
2022-10-26T05:14:18.175Z,16.13
2022-10-26T05:16:48.821Z,16.38
2022-10-26T05:19:19.303Z,26.75
2022-10-26T05:21:49.714Z,14.32
2022-10-26T05:24:22.996Z,20.52
2022-10-26T05:26:53.438Z,13.90
2022-10-26T05:29:23.956Z,10.88
2022-10-26T05:31:54.791Z,10.95
2022-10-26T05:34:25.428Z,12.82
2022-10-26T05:36:56.915Z,9.95
2022-10-26T05:39:30.213Z,14.70
2022-10-26T05:42:00.686Z,13.48
2022-10-26T05:44:31.314Z,10.95
2022-10-26T05:47:01.745Z,12.60
2022-10-26T05:49:32.309Z,11.55
2022-10-26T05:52:02.778Z,11.52
2022-10-26T05:54:35.992Z,12.52
2022-10-26T05:57:07.220Z,12.85
2022-10-26T05:59:38.721Z,11.73
2022-10-26T06:02:18.094Z,10.30
2022-10-26T06:04:50.965Z,15.88
2022-10-26T06:07:23.090Z,10.15
2022-10-26T06:09:57.112Z,7.93
2022-10-26T06:12:28.269Z,11.93
2022-10-26T06:14:59.958Z,9.85
2022-10-26T06:17:45.412Z,8.75
2022-10-26T06:20:29.307Z,12.15
2022-10-26T06:23:13.273Z,8.13
2022-10-26T06:25:55.396Z,15.27
2022-10-26T06:28:39.286Z,10.20
2022-10-26T06:31:10.431Z,11.02
2022-10-26T06:33:40.884Z,9.60
2022-10-26T06:36:24.422Z,13.02
2022-10-26T06:38:59.168Z,15.43
2022-10-26T06:41:35.202Z,11.20
2022-10-26T06:44:07.270Z,16.50
2022-10-26T06:46:45.017Z,17.63
2022-10-26T06:49:22.467Z,15.85
2022-10-26T06:51:59.334Z,15.60
2022-10-26T06:54:41.278Z,17.67
2022-10-26T06:57:17.917Z,15.23
2022-10-26T06:59:52.337Z,21.25
2022-10-26T07:02:23.167Z,14.63
2022-10-26T07:04:53.764Z,18.05
2022-10-26T07:07:26.770Z,18.13
2022-10-26T07:09:57.336Z,12.55
2022-10-26T07:12:32.887Z,13.63
2022-10-26T07:15:03.819Z,11.48
2022-10-26T07:17:38.258Z,7.53
2022-10-26T07:20:11.959Z,9.20
2022-10-26T07:22:43.014Z,9.98
2022-10-26T07:25:14.581Z,11.45
2022-10-26T07:27:47.949Z,12.82
2022-10-26T07:30:18.890Z,10.60
2022-10-26T07:32:49.781Z,11.15
2022-10-26T07:35:20.514Z,8.48
2022-10-26T07:37:51.073Z,9.98
2022-10-26T07:42:55.984Z,5.78
2022-10-26T07:45:26.819Z,4.05
2022-10-26T07:47:57.616Z,8.35
2022-10-26T07:50:28.264Z,5.35
2022-10-26T07:52:58.806Z,11.48
2022-10-26T07:55:29.738Z,6.05
2022-10-26T07:58:02.903Z,6.80
2022-10-26T08:00:33.434Z,7.22
2022-10-26T08:03:03.983Z,5.63
2022-10-26T08:05:34.430Z,4.53
2022-10-26T08:08:06.103Z,5.68
2022-10-26T08:10:36.543Z,4.07
2022-10-26T08:13:09.678Z,4.03
2022-10-26T08:15:40.300Z,9.85
2022-10-26T08:18:10.878Z,6.85
2022-10-26T08:20:41.317Z,7.32
2022-10-26T08:23:11.914Z,5.95
2022-10-26T08:25:42.348Z,6.82
2022-10-26T08:28:15.532Z,14.45
2022-10-26T08:30:46.101Z,4.18
2022-10-26T08:33:16.741Z,8.13
2022-10-26T08:35:47.214Z,6.40
2022-10-26T08:38:17.882Z,5.80
2022-10-26T08:40:48.350Z,7.28
2022-10-26T08:43:25.712Z,7.10
2022-10-26T08:45:59.914Z,5.88
2022-10-26T08:48:35.395Z,9.40
2022-10-26T08:51:10.451Z,10.82
2022-10-26T08:56:20.014Z,8.65
2022-10-26T08:58:59.730Z,6.57
2022-10-26T09:01:30.277Z,5.93
2022-10-26T09:06:38.966Z,6.22
2022-10-26T09:09:17.531Z,7.90
2022-10-26T09:11:58.351Z,5.68
2022-10-26T09:14:43.695Z,6.30
2022-10-26T09:17:23.227Z,5.57
2022-10-26T09:20:26.904Z,5.30
2022-10-26T09:23:04.085Z,6.65
2022-10-26T09:25:42.168Z,11.02
2022-10-26T09:28:18.711Z,8.18
2022-10-26T09:30:52.251Z,6.75
2022-10-26T09:36:23.836Z,6.10
2022-10-26T09:39:01.148Z,5.97
2022-10-26T09:41:39.402Z,5.70
2022-10-26T09:44:21.912Z,6.10
2022-10-26T09:47:00.329Z,4.65
2022-10-26T09:49:37.712Z,6.57
2022-10-26T09:52:08.250Z,4.10
2022-10-26T09:54:38.723Z,4.82
2022-10-26T09:57:10.987Z,4.72
2022-10-26T09:59:44.341Z,5.22
2022-10-26T10:02:49.229Z,4.05
2022-10-26T10:08:22.160Z,6.38
2022-10-26T10:11:05.250Z,3.55
2022-10-26T10:13:38.728Z,5.72
2022-10-26T10:16:13.588Z,4.22
2022-10-26T10:18:57.110Z,4.30
2022-10-26T10:21:38.022Z,3.67
2022-10-26T10:24:26.541Z,6.10
2022-10-26T10:27:02.716Z,6.53
2022-10-26T10:29:35.301Z,9.07
2022-10-26T10:32:07.866Z,5.25
2022-10-26T10:34:41.181Z,3.75
2022-10-26T10:37:27.371Z,3.33
2022-10-26T10:40:01.880Z,4.90
2022-10-26T10:42:36.022Z,3.95
2022-10-26T10:45:09.163Z,3.97
2022-10-26T10:50:37.055Z,3.40
2022-10-26T10:53:19.817Z,2.72
2022-10-26T10:56:06.507Z,5.50
2022-10-26T10:58:50.290Z,3.08
2022-10-26T11:01:25.476Z,3.67
2022-10-26T11:06:49.986Z,3.95
2022-10-26T11:09:23.979Z,3.90
2022-10-26T11:11:58.226Z,4.37
2022-10-26T11:14:32.976Z,3.90
2022-10-26T11:17:09.747Z,4.18
2022-10-26T11:19:47.016Z,4.72
2022-10-26T11:22:25.587Z,4.70
2022-10-26T11:25:02.428Z,7.22
2022-10-26T11:27:40.179Z,4.60
2022-10-26T11:30:18.392Z,3.60
2022-10-26T11:32:54.736Z,5.07
2022-10-26T11:35:31.485Z,4.03
2022-10-26T11:38:08.616Z,3.63
2022-10-26T11:40:47.723Z,3.75
2022-10-26T11:43:24.705Z,4.15
2022-10-26T11:46:06.690Z,3.55
2022-10-26T11:48:44.411Z,5.22
2022-10-26T11:51:23.411Z,6.25
2022-10-26T11:53:56.628Z,3.42
2022-10-26T11:56:35.707Z,3.63
2022-10-26T11:59:06.427Z,3.05
2022-10-26T12:01:37.491Z,2.38
2022-10-26T12:04:09.687Z,3.13
2022-10-26T12:06:40.943Z,2.85
2022-10-26T12:09:20.124Z,4.13
2022-10-26T12:11:54.916Z,3.80
2022-10-26T12:14:30.236Z,3.05
2022-10-26T12:17:07.177Z,3.47
2022-10-26T12:19:45.963Z,3.72
2022-10-26T12:22:19.436Z,4.47
2022-10-26T12:25:13.955Z,2.88
2022-10-26T12:30:29.980Z,3.50
2022-10-26T12:33:02.248Z,5.43
2022-10-26T12:35:43.070Z,5.88
2022-10-26T12:38:49.162Z,4.13
2022-10-26T12:44:04.804Z,3.95
2022-10-26T12:46:42.076Z,5.20
2022-10-26T12:49:57.728Z,4.50
2022-10-26T12:52:53.301Z,4.30
2022-10-26T12:56:07.410Z,3.70
2022-10-26T12:58:55.775Z,5.10
2022-10-26T13:05:16.402Z,3.42
2022-10-26T13:07:47.029Z,4.00
2022-10-26T13:10:24.476Z,5.13
2022-10-26T13:12:58.377Z,4.47
2022-10-26T13:15:35.374Z,3.83
2022-10-26T13:18:12.701Z,4.95
2022-10-26T13:21:01.305Z,3.55
2022-10-26T13:23:34.279Z,7.03
2022-10-26T13:26:07.146Z,5.00
2022-10-26T13:28:51.023Z,4.03
2022-10-26T13:31:51.038Z,5.32
2022-10-26T13:34:27.432Z,6.97
2022-10-26T13:37:16.042Z,4.75
2022-10-26T13:39:49.459Z,4.13
2022-10-26T13:42:24.176Z,4.93
2022-10-26T13:44:57.449Z,4.97
2022-10-26T13:47:32.218Z,6.45
2022-10-26T13:50:10.813Z,3.65
2022-10-26T13:52:45.755Z,2.63
2022-10-26T13:55:23.589Z,3.42
2022-10-26T13:58:11.926Z,4.45
2022-10-26T14:00:42.521Z,4.45
2022-10-26T14:03:17.849Z,3.00
2022-10-26T14:05:54.237Z,6.53
2022-10-26T14:08:26.203Z,6.35
2022-10-26T14:10:59.414Z,6.47
2022-10-26T14:13:33.077Z,7.97
2022-10-26T14:18:35.720Z,7.03
2022-10-26T14:21:11.023Z,12.45
2022-10-26T14:23:50.592Z,9.20
2022-10-26T14:26:25.815Z,4.13
2022-10-26T14:28:59.243Z,5.80
2022-10-26T14:31:32.206Z,7.43
2022-10-26T14:34:04.514Z,4.80
2022-10-26T14:36:42.994Z,5.75
2022-10-26T14:39:22.274Z,13.82
2022-10-26T14:41:56.369Z,6.82
2022-10-26T14:44:28.311Z,8.73
2022-10-26T14:46:58.937Z,8.98
2022-10-26T14:49:31.279Z,5.15
2022-10-26T14:52:10.017Z,3.72
2022-10-26T14:54:40.729Z,8.15
2022-10-26T14:57:33.908Z,6.25
2022-10-26T15:00:07.436Z,15.07
2022-10-26T15:02:38.375Z,10.43
2022-10-26T15:05:22.575Z,6.82
2022-10-26T15:07:56.466Z,7.55
2022-10-26T15:10:51.989Z,11.32
2022-10-26T15:13:31.552Z,8.65
2022-10-26T15:16:12.554Z,5.78
2022-10-26T15:18:43.137Z,13.10
2022-10-26T15:21:25.980Z,9.95
2022-10-26T15:24:00.810Z,13.98
2022-10-26T15:26:32.440Z,14.15
2022-10-26T15:29:03.121Z,16.25
2022-10-26T15:31:37.294Z,24.48
2022-10-26T15:34:17.519Z,12.57
2022-10-26T15:39:46.847Z,11.30
2022-10-26T15:42:17.838Z,14.70
2022-10-26T15:44:48.610Z,11.60
2022-10-26T15:47:22.519Z,19.83
2022-10-26T15:49:53.015Z,15.10
2022-10-26T15:52:23.738Z,15.98
2022-10-26T15:54:58.029Z,24.13
2022-10-26T15:57:30.217Z,23.80
2022-10-26T16:00:00.736Z,21.48
2022-10-26T16:02:31.560Z,23.25
2022-10-26T16:05:01.972Z,25.50
2022-10-26T16:07:33.970Z,34.63
2022-10-26T16:10:07.810Z,28.02
2022-10-26T16:12:39.838Z,31.30
2022-10-26T16:15:12.399Z,33.13
2022-10-26T16:17:43.052Z,29.77
2022-10-26T16:20:17.144Z,18.48
2022-10-26T16:22:50.109Z,18.70
2022-10-26T16:25:26.255Z,20.25
2022-10-26T16:27:58.258Z,14.80
2022-10-26T16:30:30.645Z,16.67
2022-10-26T16:33:01.378Z,15.52
2022-10-26T16:35:31.957Z,14.05
2022-10-26T16:38:02.989Z,13.90
2022-10-26T16:40:36.080Z,13.82
2022-10-26T16:43:06.669Z,13.65
2022-10-26T16:45:37.243Z,12.20
2022-10-26T16:48:14.276Z,16.58
2022-10-26T16:50:44.859Z,11.00
2022-10-26T16:53:15.516Z,17.15
2022-10-26T16:55:48.778Z,16.85
2022-10-26T16:58:19.381Z,15.55
2022-10-26T17:00:49.840Z,16.67
2022-10-26T17:03:20.585Z,14.93
2022-10-26T17:05:51.058Z,18.50
2022-10-26T17:08:21.681Z,12.23
2022-10-26T17:10:54.895Z,14.55
2022-10-26T17:13:25.662Z,13.57
2022-10-26T17:15:56.913Z,15.43
2022-10-26T17:18:28.195Z,14.27
2022-10-26T17:21:00.378Z,16.02
2022-10-26T17:23:32.066Z,15.30
2022-10-26T17:26:08.845Z,18.27
2022-10-26T17:28:40.459Z,13.68
2022-10-26T17:31:13.549Z,11.65
2022-10-26T17:33:51.026Z,13.55
2022-10-26T17:36:26.029Z,17.92
2022-10-26T17:38:59.362Z,11.15
2022-10-26T17:41:33.973Z,13.10
2022-10-26T17:44:05.366Z,12.85
2022-10-26T17:46:37.178Z,11.70
2022-10-26T17:49:08.602Z,15.05
2022-10-26T17:51:40.153Z,13.85
2022-10-26T17:54:11.586Z,13.70
2022-10-26T17:56:45.771Z,18.73
2022-10-26T17:59:19.609Z,12.55
2022-10-26T18:01:51.083Z,12.38
2022-10-26T18:04:23.280Z,11.13
2022-10-26T18:06:54.643Z,17.70
2022-10-26T18:09:26.072Z,12.20
2022-10-26T18:12:00.066Z,9.85
2022-10-26T18:14:31.826Z,11.35
2022-10-26T18:17:02.859Z,9.60
2022-10-26T18:19:33.949Z,8.48
2022-10-26T18:22:04.854Z,10.65
2022-10-26T18:24:35.695Z,10.10
2022-10-26T18:27:09.760Z,9.30
2022-10-26T18:29:40.702Z,12.30
2022-10-26T18:32:12.461Z,12.10
2022-10-26T18:34:44.041Z,10.95
2022-10-26T18:37:15.569Z,9.52
2022-10-26T18:39:46.822Z,7.15
2022-10-26T18:42:20.826Z,8.50
2022-10-26T18:44:52.723Z,11.98
2022-10-26T18:47:23.862Z,10.13
2022-10-26T18:49:55.662Z,11.23
2022-10-26T18:52:28.170Z,8.57
2022-10-26T18:54:59.596Z,11.90
2022-10-26T18:57:33.492Z,8.05
2022-10-26T19:00:05.138Z,9.13
2022-10-26T19:02:36.252Z,9.80
2022-10-26T19:05:07.807Z,8.93
2022-10-26T19:07:41.040Z,7.97
2022-10-26T19:10:13.968Z,11.02
2022-10-26T19:12:47.748Z,7.70
2022-10-26T19:15:19.173Z,9.70
2022-10-26T19:17:50.369Z,8.82
2022-10-26T19:20:21.388Z,9.60
2022-10-26T19:22:55.997Z,7.22
2022-10-26T19:25:27.302Z,7.83
2022-10-26T19:28:00.689Z,7.43
2022-10-26T19:30:33.493Z,8.90
2022-10-26T19:33:04.212Z,7.78
2022-10-26T19:38:06.799Z,8.77
2022-10-26T19:40:37.484Z,8.88
2022-10-26T19:43:12.835Z,8.25
2022-10-26T19:45:43.880Z,10.15
2022-10-26T19:48:14.911Z,10.15
2022-10-26T19:50:52.218Z,9.07
2022-10-26T19:53:24.073Z,9.05
2022-10-26T19:55:59.233Z,9.68
2022-10-26T19:58:34.305Z,6.95
2022-10-26T20:01:06.327Z,8.75
2022-10-26T20:03:37.716Z,6.70
2022-10-26T20:06:13.291Z,7.03
2022-10-26T20:08:45.749Z,9.10
2022-10-26T20:11:17.999Z,8.10
2022-10-26T20:13:52.053Z,7.45
2022-10-26T20:16:23.619Z,6.82
2022-10-26T20:18:54.944Z,5.82
2022-10-26T20:21:25.913Z,9.50
2022-10-26T20:23:57.276Z,9.93
2022-10-26T20:26:28.876Z,7.85
2022-10-26T20:29:03.656Z,7.57
2022-10-26T20:31:34.906Z,6.75
2022-10-26T20:34:06.487Z,7.80
2022-10-26T20:36:38.753Z,7.78
2022-10-26T20:39:10.665Z,7.32
2022-10-26T20:41:46.154Z,7.97
2022-10-26T20:44:26.092Z,7.82
2022-10-26T20:46:57.877Z,5.18
2022-10-26T20:49:30.091Z,6.15
2022-10-26T20:52:20.731Z,6.18
2022-10-26T20:54:58.023Z,5.75
2022-10-26T20:57:33.821Z,5.82
2022-10-26T21:00:10.417Z,8.07
2022-10-26T21:02:41.340Z,6.15
2022-10-26T21:05:12.714Z,5.53
2022-10-26T21:07:44.438Z,5.78
2022-10-26T21:10:15.699Z,8.23
2022-10-26T21:12:46.892Z,5.93
2022-10-26T21:15:21.012Z,6.60
2022-10-26T21:17:52.840Z,7.82
2022-10-26T21:20:24.782Z,7.55
2022-10-26T21:22:56.890Z,6.80
2022-10-26T21:25:29.619Z,6.13
2022-10-26T21:28:01.418Z,8.93
2022-10-26T21:30:36.418Z,8.00
2022-10-26T21:33:10.073Z,6.72
2022-10-26T21:35:45.409Z,7.22
2022-10-26T21:38:18.981Z,5.93
2022-10-26T21:40:52.003Z,8.63
2022-10-26T21:43:24.403Z,6.57
2022-10-26T21:46:03.949Z,7.18
2022-10-26T21:48:37.584Z,7.80
2022-10-26T21:51:12.391Z,7.50
2022-10-26T21:53:44.931Z,6.67
2022-10-26T21:56:22.939Z,5.97
2022-10-26T21:58:55.617Z,6.28
2022-10-26T22:01:30.627Z,5.93
2022-10-26T22:04:03.301Z,5.38
2022-10-26T22:06:36.359Z,7.07
2022-10-26T22:09:09.198Z,8.32
2022-10-26T22:11:42.156Z,7.45
2022-10-26T22:14:15.152Z,7.90
2022-10-26T22:16:50.770Z,6.13
2022-10-26T22:19:23.251Z,6.18
2022-10-26T22:21:55.941Z,5.53
2022-10-26T22:24:29.492Z,4.68
2022-10-26T22:27:02.602Z,6.55
2022-10-26T22:29:36.129Z,5.55
2022-10-26T22:32:13.011Z,6.38
2022-10-26T22:34:44.668Z,7.30
2022-10-26T22:37:18.094Z,5.68
2022-10-26T22:39:51.326Z,8.70
2022-10-26T22:42:23.766Z,6.00
2022-10-26T22:44:58.595Z,5.28
2022-10-26T22:47:34.334Z,6.43
2022-10-26T22:50:07.798Z,6.57
2022-10-26T22:52:40.489Z,4.57
2022-10-26T22:55:13.993Z,6.50
2022-10-26T22:57:47.666Z,6.57
2022-10-26T23:00:21.333Z,5.38
2022-10-26T23:02:57.202Z,6.05
2022-10-26T23:05:31.121Z,5.72
2022-10-26T23:08:05.265Z,7.50
2022-10-26T23:10:39.978Z,4.60
2022-10-26T23:13:13.514Z,4.45
2022-10-26T23:15:47.564Z,6.15
2022-10-26T23:18:24.289Z,5.50
2022-10-26T23:20:56.630Z,4.88
2022-10-26T23:23:30.241Z,5.47
2022-10-26T23:26:06.414Z,7.00
2022-10-26T23:28:38.780Z,4.63
2022-10-26T23:31:12.158Z,4.72
2022-10-26T23:33:48.830Z,7.28
2022-10-26T23:36:21.509Z,4.60
2022-10-26T23:38:54.446Z,5.38
2022-10-26T23:41:27.536Z,4.35
2022-10-26T23:43:59.916Z,6.63
2022-10-26T23:46:30.786Z,5.85
2022-10-26T23:49:06.261Z,7.07
2022-10-26T23:51:39.441Z,4.28
2022-10-26T23:54:13.390Z,4.18
2022-10-26T23:56:46.298Z,5.03
2022-10-26T23:59:22.114Z,6.03
